sensor_id;sensor_type;location;lat;lon;timestamp;temperature;humidity
70421;SHT31;57848;51.938;15.520;2023-01-29T00:01:24;-0.58;81.21
70421;SHT31;57848;51.938;15.520;2023-01-29T00:03:50;-0.64;81.53
70421;SHT31;57848;51.938;15.520;2023-01-29T00:06:16;-0.75;81.84
70421;SHT31;57848;51.938;15.520;2023-01-29T00:08:41;-0.69;81.86
70421;SHT31;57848;51.938;15.520;2023-01-29T00:11:07;-0.71;81.81
70421;SHT31;57848;51.938;15.520;2023-01-29T00:13:33;-0.72;81.81
70421;SHT31;57848;51.938;15.520;2023-01-29T00:15:59;-0.75;81.81
70421;SHT31;57848;51.938;15.520;2023-01-29T00:18:26;-0.76;81.61
70421;SHT31;57848;51.938;15.520;2023-01-29T00:20:51;-0.79;82.03
70421;SHT31;57848;51.938;15.520;2023-01-29T00:23:17;-0.86;82.79
70421;SHT31;57848;51.938;15.520;2023-01-29T00:25:43;-0.92;82.53
70421;SHT31;57848;51.938;15.520;2023-01-29T00:28:09;-0.88;82.47
70421;SHT31;57848;51.938;15.520;2023-01-29T00:30:35;-0.96;82.58
70421;SHT31;57848;51.938;15.520;2023-01-29T00:33:02;-0.93;82.55
70421;SHT31;57848;51.938;15.520;2023-01-29T00:35:28;-0.96;82.78
70421;SHT31;57848;51.938;15.520;2023-01-29T00:37:54;-0.99;83.27
70421;SHT31;57848;51.938;15.520;2023-01-29T00:40:20;-1.10;83.15
70421;SHT31;57848;51.938;15.520;2023-01-29T00:42:45;-1.05;83.03
70421;SHT31;57848;51.938;15.520;2023-01-29T00:45:30;-1.07;82.63
70421;SHT31;57848;51.938;15.520;2023-01-29T00:47:56;-1.02;82.49
70421;SHT31;57848;51.938;15.520;2023-01-29T00:50:21;-1.06;82.37
70421;SHT31;57848;51.938;15.520;2023-01-29T00:52:47;-1.00;82.31
70421;SHT31;57848;51.938;15.520;2023-01-29T00:55:13;-0.99;82.88
70421;SHT31;57848;51.938;15.520;2023-01-29T00:57:39;-0.96;81.86
70421;SHT31;57848;51.938;15.520;2023-01-29T01:00:07;-0.99;82.33
70421;SHT31;57848;51.938;15.520;2023-01-29T01:02:34;-0.93;81.71
70421;SHT31;57848;51.938;15.520;2023-01-29T01:05:18;-0.93;81.91
70421;SHT31;57848;51.938;15.520;2023-01-29T01:07:45;-0.91;82.26
70421;SHT31;57848;51.938;15.520;2023-01-29T01:10:17;-0.93;81.62
70421;SHT31;57848;51.938;15.520;2023-01-29T01:12:48;-0.93;82.61
70421;SHT31;57848;51.938;15.520;2023-01-29T01:15:15;-0.96;81.30
70421;SHT31;57848;51.938;15.520;2023-01-29T01:17:40;-1.03;81.64
70421;SHT31;57848;51.938;15.520;2023-01-29T01:20:08;-1.06;81.74
70421;SHT31;57848;51.938;15.520;2023-01-29T01:22:33;-1.09;81.87
70421;SHT31;57848;51.938;15.520;2023-01-29T01:24:59;-1.16;81.88
70421;SHT31;57848;51.938;15.520;2023-01-29T01:27:25;-1.19;82.29
70421;SHT31;57848;51.938;15.520;2023-01-29T01:29:50;-1.21;82.54
70421;SHT31;57848;51.938;15.520;2023-01-29T01:32:16;-1.25;82.51
70421;SHT31;57848;51.938;15.520;2023-01-29T01:34:42;-1.29;82.54
70421;SHT31;57848;51.938;15.520;2023-01-29T01:37:11;-1.29;82.76
70421;SHT31;57848;51.938;15.520;2023-01-29T01:39:37;-1.39;83.03
70421;SHT31;57848;51.938;15.520;2023-01-29T01:42:02;-1.37;82.77
70421;SHT31;57848;51.938;15.520;2023-01-29T01:44:48;-1.50;83.56
70421;SHT31;57848;51.938;15.520;2023-01-29T01:47:16;-1.42;82.98
70421;SHT31;57848;51.938;15.520;2023-01-29T01:49:43;-1.48;83.59
70421;SHT31;57848;51.938;15.520;2023-01-29T01:52:10;-1.48;83.49
70421;SHT31;57848;51.938;15.520;2023-01-29T01:54:36;-1.48;83.54
70421;SHT31;57848;51.938;15.520;2023-01-29T01:57:22;-1.46;83.23
70421;SHT31;57848;51.938;15.520;2023-01-29T01:59:53;-1.43;83.12
70421;SHT31;57848;51.938;15.520;2023-01-29T02:02:21;-1.46;82.90
70421;SHT31;57848;51.938;15.520;2023-01-29T02:05:06;-1.47;83.44
70421;SHT31;57848;51.938;15.520;2023-01-29T02:07:50;-1.50;83.16
70421;SHT31;57848;51.938;15.520;2023-01-29T02:10:40;-1.54;83.43
70421;SHT31;57848;51.938;15.520;2023-01-29T02:13:07;-1.50;83.06
70421;SHT31;57848;51.938;15.520;2023-01-29T02:15:33;-1.44;83.32
70421;SHT31;57848;51.938;15.520;2023-01-29T02:18:00;-1.50;83.39
70421;SHT31;57848;51.938;15.520;2023-01-29T02:20:28;-1.46;83.01
70421;SHT31;57848;51.938;15.520;2023-01-29T02:23:05;-1.43;82.86
70421;SHT31;57848;51.938;15.520;2023-01-29T02:34:15;-1.50;82.68
70421;SHT31;57848;51.938;15.520;2023-01-29T02:37:08;-1.57;83.52
70421;SHT31;57848;51.938;15.520;2023-01-29T02:45:13;-1.47;82.67
70421;SHT31;57848;51.938;15.520;2023-01-29T02:47:57;-1.51;82.68
70421;SHT31;57848;51.938;15.520;2023-01-29T02:53:35;-1.53;82.76
70421;SHT31;57848;51.938;15.520;2023-01-29T02:56:09;-1.54;82.79
70421;SHT31;57848;51.938;15.520;2023-01-29T02:58:45;-1.56;82.83
70421;SHT31;57848;51.938;15.520;2023-01-29T03:01:34;-1.48;82.53
70421;SHT31;57848;51.938;15.520;2023-01-29T03:04:07;-1.47;82.43
70421;SHT31;57848;51.938;15.520;2023-01-29T03:06:38;-1.46;82.65
70421;SHT31;57848;51.938;15.520;2023-01-29T03:09:32;-1.39;82.17
70421;SHT31;57848;51.938;15.520;2023-01-29T03:12:12;-1.39;82.24
70421;SHT31;57848;51.938;15.520;2023-01-29T03:14:59;-1.30;82.79
70421;SHT31;57848;51.938;15.520;2023-01-29T03:18:11;-1.32;82.12
70421;SHT31;57848;51.938;15.520;2023-01-29T03:20:39;-1.30;82.47
70421;SHT31;57848;51.938;15.520;2023-01-29T03:23:23;-1.25;82.02
70421;SHT31;57848;51.938;15.520;2023-01-29T03:25:53;-1.15;81.92
70421;SHT31;57848;51.938;15.520;2023-01-29T03:28:41;-1.03;82.25
70421;SHT31;57848;51.938;15.520;2023-01-29T03:31:26;-0.97;81.73
70421;SHT31;57848;51.938;15.520;2023-01-29T03:34:16;-1.00;81.81
70421;SHT31;57848;51.938;15.520;2023-01-29T03:36:53;-0.95;82.02
70421;SHT31;57848;51.938;15.520;2023-01-29T03:39:21;-0.96;81.50
70421;SHT31;57848;51.938;15.520;2023-01-29T03:42:03;-0.89;81.77
70421;SHT31;57848;51.938;15.520;2023-01-29T03:47:45;-0.93;82.11
70421;SHT31;57848;51.938;15.520;2023-01-29T04:06:26;-0.81;81.01
70421;SHT31;57848;51.938;15.520;2023-01-29T04:09:17;-0.89;81.65
70421;SHT31;57848;51.938;15.520;2023-01-29T04:12:06;-0.85;81.23
70421;SHT31;57848;51.938;15.520;2023-01-29T04:14:35;-0.96;81.22
70421;SHT31;57848;51.938;15.520;2023-01-29T04:17:08;-0.85;81.43
70421;SHT31;57848;51.938;15.520;2023-01-29T04:19:44;-0.82;81.28
70421;SHT31;57848;51.938;15.520;2023-01-29T04:22:19;-0.84;81.41
70421;SHT31;57848;51.938;15.520;2023-01-29T04:24:47;-0.82;81.24
70421;SHT31;57848;51.938;15.520;2023-01-29T04:27:32;-0.88;81.52
70421;SHT31;57848;51.938;15.520;2023-01-29T04:32:50;-1.00;82.06
70421;SHT31;57848;51.938;15.520;2023-01-29T04:35:36;-1.03;81.95
70421;SHT31;57848;51.938;15.520;2023-01-29T04:38:33;-0.88;81.89
70421;SHT31;57848;51.938;15.520;2023-01-29T04:41:26;-0.99;82.15
70421;SHT31;57848;51.938;15.520;2023-01-29T04:57:04;-0.95;82.97
70421;SHT31;57848;51.938;15.520;2023-01-29T04:59:41;-0.91;83.31
70421;SHT31;57848;51.938;15.520;2023-01-29T05:02:09;-0.92;83.59
70421;SHT31;57848;51.938;15.520;2023-01-29T05:04:37;-0.89;83.92
70421;SHT31;57848;51.938;15.520;2023-01-29T05:07:07;-0.85;83.67
70421;SHT31;57848;51.938;15.520;2023-01-29T05:09:36;-0.88;83.00
70421;SHT31;57848;51.938;15.520;2023-01-29T05:12:05;-0.91;82.79
70421;SHT31;57848;51.938;15.520;2023-01-29T05:14:33;-0.92;83.67
70421;SHT31;57848;51.938;15.520;2023-01-29T05:17:02;-0.91;83.82
70421;SHT31;57848;51.938;15.520;2023-01-29T05:19:30;-0.84;83.85
70421;SHT31;57848;51.938;15.520;2023-01-29T05:21:56;-0.88;83.94
70421;SHT31;57848;51.938;15.520;2023-01-29T05:24:23;-0.89;84.09
70421;SHT31;57848;51.938;15.520;2023-01-29T05:26:51;-0.81;83.92
70421;SHT31;57848;51.938;15.520;2023-01-29T05:29:35;-0.88;84.08
70421;SHT31;57848;51.938;15.520;2023-01-29T05:32:02;-0.91;84.15
70421;SHT31;57848;51.938;15.520;2023-01-29T05:34:28;-0.78;84.61
70421;SHT31;57848;51.938;15.520;2023-01-29T05:36:54;-0.82;84.50
70421;SHT31;57848;51.938;15.520;2023-01-29T05:39:20;-0.95;84.08
70421;SHT31;57848;51.938;15.520;2023-01-29T05:41:45;-0.95;84.33
70421;SHT31;57848;51.938;15.520;2023-01-29T05:44:11;-0.91;84.95
70421;SHT31;57848;51.938;15.520;2023-01-29T05:46:37;-0.99;84.62
70421;SHT31;57848;51.938;15.520;2023-01-29T05:49:03;-0.92;84.90
70421;SHT31;57848;51.938;15.520;2023-01-29T05:51:29;-0.91;84.79
70421;SHT31;57848;51.938;15.520;2023-01-29T05:53:54;-0.89;84.30
70421;SHT31;57848;51.938;15.520;2023-01-29T05:56:19;-0.95;84.71
70421;SHT31;57848;51.938;15.520;2023-01-29T05:58:45;-0.91;84.39
70421;SHT31;57848;51.938;15.520;2023-01-29T06:01:17;-0.82;84.07
70421;SHT31;57848;51.938;15.520;2023-01-29T06:03:43;-0.82;84.02
70421;SHT31;57848;51.938;15.520;2023-01-29T06:06:09;-0.82;84.36
70421;SHT31;57848;51.938;15.520;2023-01-29T06:08:35;-0.89;83.99
70421;SHT31;57848;51.938;15.520;2023-01-29T06:11:00;-0.81;85.03
70421;SHT31;57848;51.938;15.520;2023-01-29T06:13:26;-0.89;85.57
70421;SHT31;57848;51.938;15.520;2023-01-29T06:15:51;-0.89;85.34
70421;SHT31;57848;51.938;15.520;2023-01-29T06:18:17;-0.88;85.21
70421;SHT31;57848;51.938;15.520;2023-01-29T06:20:42;-0.91;85.27
70421;SHT31;57848;51.938;15.520;2023-01-29T06:23:08;-0.93;84.80
70421;SHT31;57848;51.938;15.520;2023-01-29T06:25:33;-0.81;84.76
70421;SHT31;57848;51.938;15.520;2023-01-29T06:27:58;-0.92;84.57
70421;SHT31;57848;51.938;15.520;2023-01-29T06:30:24;-0.85;84.16
70421;SHT31;57848;51.938;15.520;2023-01-29T06:32:49;-0.84;83.82
70421;SHT31;57848;51.938;15.520;2023-01-29T06:35:15;-0.85;83.64
70421;SHT31;57848;51.938;15.520;2023-01-29T06:37:40;-0.85;84.09
70421;SHT31;57848;51.938;15.520;2023-01-29T06:40:06;-0.92;84.13
70421;SHT31;57848;51.938;15.520;2023-01-29T06:42:35;-0.81;84.12
70421;SHT31;57848;51.938;15.520;2023-01-29T06:45:00;-0.76;83.41
70421;SHT31;57848;51.938;15.520;2023-01-29T06:47:26;-0.72;83.50
70421;SHT31;57848;51.938;15.520;2023-01-29T06:49:52;-0.71;83.43
70421;SHT31;57848;51.938;15.520;2023-01-29T06:52:17;-0.74;83.80
70421;SHT31;57848;51.938;15.520;2023-01-29T06:54:43;-0.72;84.03
70421;SHT31;57848;51.938;15.520;2023-01-29T06:57:08;-0.58;83.48
70421;SHT31;57848;51.938;15.520;2023-01-29T06:59:33;-0.60;83.00
70421;SHT31;57848;51.938;15.520;2023-01-29T07:01:59;-0.65;82.73
70421;SHT31;57848;51.938;15.520;2023-01-29T07:04:24;-0.64;83.14
70421;SHT31;57848;51.938;15.520;2023-01-29T07:06:50;-0.60;82.86
70421;SHT31;57848;51.938;15.520;2023-01-29T07:09:15;-0.62;83.10
70421;SHT31;57848;51.938;15.520;2023-01-29T07:11:41;-0.58;82.95
70421;SHT31;57848;51.938;15.520;2023-01-29T07:14:06;-0.64;83.40
70421;SHT31;57848;51.938;15.520;2023-01-29T07:16:32;-0.55;83.66
70421;SHT31;57848;51.938;15.520;2023-01-29T07:18:58;-0.51;83.23
70421;SHT31;57848;51.938;15.520;2023-01-29T07:21:23;-0.53;83.20
70421;SHT31;57848;51.938;15.520;2023-01-29T07:23:49;-0.51;83.50
70421;SHT31;57848;51.938;15.520;2023-01-29T07:26:15;-0.53;83.47
70421;SHT31;57848;51.938;15.520;2023-01-29T07:28:41;-0.45;83.56
70421;SHT31;57848;51.938;15.520;2023-01-29T07:31:07;-0.48;83.55
70421;SHT31;57848;51.938;15.520;2023-01-29T07:33:35;-0.34;83.89
70421;SHT31;57848;51.938;15.520;2023-01-29T07:36:00;-0.35;84.28
70421;SHT31;57848;51.938;15.520;2023-01-29T07:38:26;-0.31;84.38
70421;SHT31;57848;51.938;15.520;2023-01-29T07:40:52;-0.28;83.96
70421;SHT31;57848;51.938;15.520;2023-01-29T07:43:17;-0.28;84.05
70421;SHT31;57848;51.938;15.520;2023-01-29T07:45:43;-0.30;84.10
70421;SHT31;57848;51.938;15.520;2023-01-29T07:48:11;-0.30;83.85
70421;SHT31;57848;51.938;15.520;2023-01-29T07:50:38;-0.31;84.03
70421;SHT31;57848;51.938;15.520;2023-01-29T07:53:03;-0.20;84.53
70421;SHT31;57848;51.938;15.520;2023-01-29T07:55:29;-0.21;84.08
70421;SHT31;57848;51.938;15.520;2023-01-29T07:57:56;-0.16;84.16
70421;SHT31;57848;51.938;15.520;2023-01-29T08:00:22;-0.10;84.02
70421;SHT31;57848;51.938;15.520;2023-01-29T08:02:47;-0.10;83.73
70421;SHT31;57848;51.938;15.520;2023-01-29T08:05:12;-0.10;83.88
70421;SHT31;57848;51.938;15.520;2023-01-29T08:07:38;-0.17;84.22
70421;SHT31;57848;51.938;15.520;2023-01-29T08:10:03;-0.07;83.87
70421;SHT31;57848;51.938;15.520;2023-01-29T08:12:29;-0.10;84.56
70421;SHT31;57848;51.938;15.520;2023-01-29T08:14:54;-0.07;85.06
70421;SHT31;57848;51.938;15.520;2023-01-29T08:17:20;-0.03;85.49
70421;SHT31;57848;51.938;15.520;2023-01-29T08:19:45;-0.14;85.02
70421;SHT31;57848;51.938;15.520;2023-01-29T08:22:10;-0.16;85.79
70421;SHT31;57848;51.938;15.520;2023-01-29T08:24:36;-0.11;86.08
70421;SHT31;57848;51.938;15.520;2023-01-29T08:27:01;-0.09;85.82
70421;SHT31;57848;51.938;15.520;2023-01-29T08:29:27;-0.03;85.80
70421;SHT31;57848;51.938;15.520;2023-01-29T08:31:52;-0.11;85.81
70421;SHT31;57848;51.938;15.520;2023-01-29T08:34:17;0.07;86.05
70421;SHT31;57848;51.938;15.520;2023-01-29T08:36:43;-0.03;85.91
70421;SHT31;57848;51.938;15.520;2023-01-29T08:39:08;0.03;85.84
70421;SHT31;57848;51.938;15.520;2023-01-29T08:41:34;0.00;86.21
70421;SHT31;57848;51.938;15.520;2023-01-29T08:43:59;0.01;86.52
70421;SHT31;57848;51.938;15.520;2023-01-29T08:46:26;0.00;86.72
70421;SHT31;57848;51.938;15.520;2023-01-29T08:48:52;0.07;86.89
70421;SHT31;57848;51.938;15.520;2023-01-29T08:51:17;0.04;87.10
70421;SHT31;57848;51.938;15.520;2023-01-29T08:53:43;0.10;87.21
70421;SHT31;57848;51.938;15.520;2023-01-29T08:56:08;0.00;87.92
70421;SHT31;57848;51.938;15.520;2023-01-29T08:58:34;0.03;88.07
70421;SHT31;57848;51.938;15.520;2023-01-29T09:01:10;-0.04;89.12
70421;SHT31;57848;51.938;15.520;2023-01-29T09:03:36;-0.04;89.39
70421;SHT31;57848;51.938;15.520;2023-01-29T09:06:02;0.00;89.43
70421;SHT31;57848;51.938;15.520;2023-01-29T09:08:28;0.00;89.74
70421;SHT31;57848;51.938;15.520;2023-01-29T09:10:53;-0.07;89.86
70421;SHT31;57848;51.938;15.520;2023-01-29T09:13:19;0.00;89.56
70421;SHT31;57848;51.938;15.520;2023-01-29T09:15:44;-0.02;90.12
70421;SHT31;57848;51.938;15.520;2023-01-29T09:18:09;0.03;89.72
70421;SHT31;57848;51.938;15.520;2023-01-29T09:20:35;-0.03;89.92
70421;SHT31;57848;51.938;15.520;2023-01-29T09:23:06;0.08;89.76
70421;SHT31;57848;51.938;15.520;2023-01-29T09:25:31;0.05;89.48
70421;SHT31;57848;51.938;15.520;2023-01-29T09:27:57;0.13;89.53
70421;SHT31;57848;51.938;15.520;2023-01-29T09:30:22;0.22;89.24
70421;SHT31;57848;51.938;15.520;2023-01-29T09:32:48;0.19;88.83
70421;SHT31;57848;51.938;15.520;2023-01-29T09:35:13;0.21;88.87
70421;SHT31;57848;51.938;15.520;2023-01-29T09:37:39;0.28;88.59
70421;SHT31;57848;51.938;15.520;2023-01-29T09:40:05;0.25;89.29
70421;SHT31;57848;51.938;15.520;2023-01-29T09:42:43;0.18;89.44
70421;SHT31;57848;51.938;15.520;2023-01-29T09:45:16;0.22;89.79
70421;SHT31;57848;51.938;15.520;2023-01-29T09:47:43;0.18;89.11
70421;SHT31;57848;51.938;15.520;2023-01-29T09:50:29;0.22;88.98
70421;SHT31;57848;51.938;15.520;2023-01-29T09:53:04;0.17;89.58
70421;SHT31;57848;51.938;15.520;2023-01-29T09:55:36;0.25;89.24
70421;SHT31;57848;51.938;15.520;2023-01-29T10:01:11;0.19;89.49
70421;SHT31;57848;51.938;15.520;2023-01-29T10:03:50;0.25;89.48
70421;SHT31;57848;51.938;15.520;2023-01-29T10:06:24;0.29;89.41
70421;SHT31;57848;51.938;15.520;2023-01-29T10:25:26;0.25;89.92
70421;SHT31;57848;51.938;15.520;2023-01-29T10:27:58;0.17;89.96
70421;SHT31;57848;51.938;15.520;2023-01-29T10:30:39;0.29;89.84
70421;SHT31;57848;51.938;15.520;2023-01-29T10:33:09;0.24;89.77
70421;SHT31;57848;51.938;15.520;2023-01-29T10:35:46;0.37;89.76
70421;SHT31;57848;51.938;15.520;2023-01-29T10:38:23;0.31;89.85
70421;SHT31;57848;51.938;15.520;2023-01-29T10:44:00;0.29;89.50
70421;SHT31;57848;51.938;15.520;2023-01-29T10:52:23;0.46;89.55
70421;SHT31;57848;51.938;15.520;2023-01-29T10:57:51;0.44;89.42
70421;SHT31;57848;51.938;15.520;2023-01-29T11:00:21;0.49;89.16
70421;SHT31;57848;51.938;15.520;2023-01-29T11:02:48;0.45;89.07
70421;SHT31;57848;51.938;15.520;2023-01-29T11:05:40;0.38;89.09
70421;SHT31;57848;51.938;15.520;2023-01-29T11:08:11;0.31;89.45
70421;SHT31;57848;51.938;15.520;2023-01-29T11:10:48;0.45;89.31
70421;SHT31;57848;51.938;15.520;2023-01-29T11:13:16;0.51;88.94
70421;SHT31;57848;51.938;15.520;2023-01-29T11:15:42;0.55;88.66
70421;SHT31;57848;51.938;15.520;2023-01-29T11:18:12;0.54;88.85
70421;SHT31;57848;51.938;15.520;2023-01-29T11:20:41;0.55;89.06
70421;SHT31;57848;51.938;15.520;2023-01-29T11:23:31;0.56;88.57
70421;SHT31;57848;51.938;15.520;2023-01-29T11:25:58;0.46;89.03
70421;SHT31;57848;51.938;15.520;2023-01-29T11:28:43;0.64;89.06
70421;SHT31;57848;51.938;15.520;2023-01-29T11:31:24;0.80;88.75
70421;SHT31;57848;51.938;15.520;2023-01-29T11:34:01;0.79;88.79
70421;SHT31;57848;51.938;15.520;2023-01-29T11:36:34;0.82;88.32
70421;SHT31;57848;51.938;15.520;2023-01-29T11:39:21;0.83;88.28
70421;SHT31;57848;51.938;15.520;2023-01-29T11:42:01;0.79;88.35
70421;SHT31;57848;51.938;15.520;2023-01-29T11:47:06;0.77;88.75
70421;SHT31;57848;51.938;15.520;2023-01-29T11:49:34;0.69;88.77
70421;SHT31;57848;51.938;15.520;2023-01-29T11:52:02;0.59;89.36
70421;SHT31;57848;51.938;15.520;2023-01-29T11:54:34;0.64;89.27
70421;SHT31;57848;51.938;15.520;2023-01-29T11:57:02;0.68;89.78
70421;SHT31;57848;51.938;15.520;2023-01-29T11:59:40;0.68;89.53
70421;SHT31;57848;51.938;15.520;2023-01-29T12:02:20;0.72;89.53
70421;SHT31;57848;51.938;15.520;2023-01-29T12:04:47;0.73;89.55
70421;SHT31;57848;51.938;15.520;2023-01-29T12:07:14;0.75;89.89
70421;SHT31;57848;51.938;15.520;2023-01-29T12:09:48;0.75;90.25
70421;SHT31;57848;51.938;15.520;2023-01-29T12:12:40;0.73;90.33
70421;SHT31;57848;51.938;15.520;2023-01-29T12:15:21;0.82;89.95
70421;SHT31;57848;51.938;15.520;2023-01-29T12:17:55;0.76;90.75
70421;SHT31;57848;51.938;15.520;2023-01-29T12:20:27;0.82;91.10
70421;SHT31;57848;51.938;15.520;2023-01-29T12:26:13;0.79;90.14
70421;SHT31;57848;51.938;15.520;2023-01-29T12:28:49;0.75;90.10
70421;SHT31;57848;51.938;15.520;2023-01-29T12:37:24;0.68;91.28
70421;SHT31;57848;51.938;15.520;2023-01-29T12:39:49;0.73;91.55
70421;SHT31;57848;51.938;15.520;2023-01-29T12:42:21;0.77;91.34
70421;SHT31;57848;51.938;15.520;2023-01-29T12:45:00;0.77;91.19
70421;SHT31;57848;51.938;15.520;2023-01-29T12:49:56;0.87;90.98
70421;SHT31;57848;51.938;15.520;2023-01-29T12:52:47;0.86;90.98
70421;SHT31;57848;51.938;15.520;2023-01-29T12:55:19;0.80;91.13
70421;SHT31;57848;51.938;15.520;2023-01-29T12:57:59;0.77;91.37
70421;SHT31;57848;51.938;15.520;2023-01-29T13:00:28;0.80;91.26
70421;SHT31;57848;51.938;15.520;2023-01-29T13:03:01;0.76;91.12
70421;SHT31;57848;51.938;15.520;2023-01-29T13:08:31;0.89;91.07
70421;SHT31;57848;51.938;15.520;2023-01-29T13:11:03;0.76;91.38
70421;SHT31;57848;51.938;15.520;2023-01-29T13:16:22;0.90;91.55
70421;SHT31;57848;51.938;15.520;2023-01-29T13:18:53;0.96;91.64
70421;SHT31;57848;51.938;15.520;2023-01-29T13:21:23;0.89;91.23
70421;SHT31;57848;51.938;15.520;2023-01-29T13:24:37;1.00;90.81
70421;SHT31;57848;51.938;15.520;2023-01-29T13:26:37;0.93;91.03
70421;SHT31;57848;51.938;15.520;2023-01-29T13:29:03;1.04;90.75
70421;SHT31;57848;51.938;15.520;2023-01-29T13:31:35;0.96;90.94
70421;SHT31;57848;51.938;15.520;2023-01-29T13:34:30;1.03;90.88
70421;SHT31;57848;51.938;15.520;2023-01-29T13:36:59;1.03;90.71
70421;SHT31;57848;51.938;15.520;2023-01-29T13:39:30;1.03;90.69
70421;SHT31;57848;51.938;15.520;2023-01-29T13:41:58;1.04;90.42
70421;SHT31;57848;51.938;15.520;2023-01-29T13:44:35;1.03;90.26
70421;SHT31;57848;51.938;15.520;2023-01-29T13:47:07;1.01;90.82
70421;SHT31;57848;51.938;15.520;2023-01-29T13:49:40;0.99;90.13
70421;SHT31;57848;51.938;15.520;2023-01-29T13:52:32;0.94;90.73
70421;SHT31;57848;51.938;15.520;2023-01-29T13:57:54;0.96;90.15
70421;SHT31;57848;51.938;15.520;2023-01-29T14:03:31;0.97;90.18
70421;SHT31;57848;51.938;15.520;2023-01-29T14:13:38;1.04;90.36
70421;SHT31;57848;51.938;15.520;2023-01-29T14:18:33;1.06;90.68
70421;SHT31;57848;51.938;15.520;2023-01-29T14:21:02;1.06;89.95
70421;SHT31;57848;51.938;15.520;2023-01-29T14:23:47;1.04;90.37
70421;SHT31;57848;51.938;15.520;2023-01-29T14:29:00;0.94;89.39
70421;SHT31;57848;51.938;15.520;2023-01-29T14:31:46;0.99;90.06
70421;SHT31;57848;51.938;15.520;2023-01-29T14:34:32;1.08;89.94
70421;SHT31;57848;51.938;15.520;2023-01-29T14:37:18;1.08;89.38
70421;SHT31;57848;51.938;15.520;2023-01-29T14:39:57;1.12;89.35
70421;SHT31;57848;51.938;15.520;2023-01-29T14:42:36;1.10;88.81
70421;SHT31;57848;51.938;15.520;2023-01-29T14:52:59;1.00;89.11
70421;SHT31;57848;51.938;15.520;2023-01-29T14:55:29;0.93;88.72
70421;SHT31;57848;51.938;15.520;2023-01-29T14:57:55;0.99;89.02
70421;SHT31;57848;51.938;15.520;2023-01-29T15:00:29;1.01;88.82
70421;SHT31;57848;51.938;15.520;2023-01-29T15:02:55;1.00;88.36
70421;SHT31;57848;51.938;15.520;2023-01-29T15:05:26;1.01;88.59
70421;SHT31;57848;51.938;15.520;2023-01-29T15:08:05;1.00;88.49
70421;SHT31;57848;51.938;15.520;2023-01-29T15:13:16;1.03;88.37
70421;SHT31;57848;51.938;15.520;2023-01-29T15:16:05;1.03;88.35
70421;SHT31;57848;51.938;15.520;2023-01-29T15:18:36;0.97;88.54
70421;SHT31;57848;51.938;15.520;2023-01-29T15:21:09;0.90;88.84
70421;SHT31;57848;51.938;15.520;2023-01-29T15:23:36;0.83;89.31
70421;SHT31;57848;51.938;15.520;2023-01-29T15:26:04;0.85;89.56
70421;SHT31;57848;51.938;15.520;2023-01-29T15:28:32;0.92;90.17
70421;SHT31;57848;51.938;15.520;2023-01-29T15:31:00;0.89;90.24
70421;SHT31;57848;51.938;15.520;2023-01-29T15:33:29;0.79;90.28
70421;SHT31;57848;51.938;15.520;2023-01-29T15:36:00;0.79;90.40
70421;SHT31;57848;51.938;15.520;2023-01-29T15:38:27;0.79;90.67
70421;SHT31;57848;51.938;15.520;2023-01-29T15:40:57;0.76;91.19
70421;SHT31;57848;51.938;15.520;2023-01-29T15:43:28;0.75;90.28
70421;SHT31;57848;51.938;15.520;2023-01-29T15:46:02;0.80;90.38
70421;SHT31;57848;51.938;15.520;2023-01-29T15:48:32;0.86;89.64
70421;SHT31;57848;51.938;15.520;2023-01-29T15:50:59;0.80;89.71
70421;SHT31;57848;51.938;15.520;2023-01-29T15:53:34;0.80;90.01
70421;SHT31;57848;51.938;15.520;2023-01-29T15:56:00;0.76;90.26
70421;SHT31;57848;51.938;15.520;2023-01-29T15:58:31;0.80;90.05
70421;SHT31;57848;51.938;15.520;2023-01-29T16:00:58;0.87;89.97
70421;SHT31;57848;51.938;15.520;2023-01-29T16:03:26;0.77;89.83
70421;SHT31;57848;51.938;15.520;2023-01-29T16:05:53;0.82;89.82
70421;SHT31;57848;51.938;15.520;2023-01-29T16:08:20;0.87;89.57
70421;SHT31;57848;51.938;15.520;2023-01-29T16:10:49;0.86;89.89
70421;SHT31;57848;51.938;15.520;2023-01-29T16:13:21;0.85;89.64
70421;SHT31;57848;51.938;15.520;2023-01-29T16:15:59;0.92;89.84
70421;SHT31;57848;51.938;15.520;2023-01-29T16:18:38;0.79;89.76
70421;SHT31;57848;51.938;15.520;2023-01-29T16:21:07;0.80;89.73
70421;SHT31;57848;51.938;15.520;2023-01-29T16:23:39;0.76;89.66
70421;SHT31;57848;51.938;15.520;2023-01-29T16:26:07;0.80;89.84
70421;SHT31;57848;51.938;15.520;2023-01-29T16:28:39;0.77;90.14
70421;SHT31;57848;51.938;15.520;2023-01-29T16:31:04;0.77;90.45
70421;SHT31;57848;51.938;15.520;2023-01-29T16:33:38;0.77;90.38
70421;SHT31;57848;51.938;15.520;2023-01-29T16:36:16;0.69;90.51
70421;SHT31;57848;51.938;15.520;2023-01-29T16:38:48;0.70;90.53
70421;SHT31;57848;51.938;15.520;2023-01-29T16:43:50;0.58;90.27
70421;SHT31;57848;51.938;15.520;2023-01-29T16:48:48;0.54;90.35
70421;SHT31;57848;51.938;15.520;2023-01-29T16:51:38;0.46;90.68
70421;SHT31;57848;51.938;15.520;2023-01-29T16:54:11;0.46;90.45
70421;SHT31;57848;51.938;15.520;2023-01-29T16:56:44;0.46;90.92
70421;SHT31;57848;51.938;15.520;2023-01-29T16:59:34;0.55;90.63
70421;SHT31;57848;51.938;15.520;2023-01-29T17:02:00;0.59;90.10
70421;SHT31;57848;51.938;15.520;2023-01-29T17:04:27;0.66;90.49
70421;SHT31;57848;51.938;15.520;2023-01-29T17:06:55;0.66;89.62
70421;SHT31;57848;51.938;15.520;2023-01-29T17:09:34;0.75;89.56
70421;SHT31;57848;51.938;15.520;2023-01-29T17:12:02;0.69;89.51
70421;SHT31;57848;51.938;15.520;2023-01-29T17:14:31;0.79;89.14
70421;SHT31;57848;51.938;15.520;2023-01-29T17:17:14;0.73;89.21
70421;SHT31;57848;51.938;15.520;2023-01-29T17:19:39;0.85;89.13
70421;SHT31;57848;51.938;15.520;2023-01-29T17:22:06;0.86;88.97
70421;SHT31;57848;51.938;15.520;2023-01-29T17:24:33;0.82;88.65
70421;SHT31;57848;51.938;15.520;2023-01-29T17:27:02;0.90;88.63
70421;SHT31;57848;51.938;15.520;2023-01-29T17:29:29;0.79;88.34
70421;SHT31;57848;51.938;15.520;2023-01-29T17:31:55;0.86;88.01
70421;SHT31;57848;51.938;15.520;2023-01-29T17:34:24;0.90;88.09
70421;SHT31;57848;51.938;15.520;2023-01-29T17:36:49;0.89;88.09
70421;SHT31;57848;51.938;15.520;2023-01-29T17:39:17;0.92;88.09
70421;SHT31;57848;51.938;15.520;2023-01-29T17:41:49;0.80;88.02
70421;SHT31;57848;51.938;15.520;2023-01-29T17:44:15;0.82;88.24
70421;SHT31;57848;51.938;15.520;2023-01-29T17:46:40;0.80;87.90
70421;SHT31;57848;51.938;15.520;2023-01-29T17:51:44;0.83;88.00
70421;SHT31;57848;51.938;15.520;2023-01-29T17:54:10;0.80;88.27
70421;SHT31;57848;51.938;15.520;2023-01-29T17:56:35;0.79;87.92
70421;SHT31;57848;51.938;15.520;2023-01-29T17:59:01;0.82;87.85
70421;SHT31;57848;51.938;15.520;2023-01-29T18:01:26;0.73;88.20
70421;SHT31;57848;51.938;15.520;2023-01-29T18:03:51;0.77;87.95
70421;SHT31;57848;51.938;15.520;2023-01-29T18:06:35;0.76;88.17